createdAt,value
2023-04-16T00:01:28.794Z,14.40
2023-04-16T00:03:56.007Z,14.50
2023-04-16T00:06:23.326Z,14.50
2023-04-16T00:08:51.588Z,14.50
2023-04-16T00:11:18.315Z,14.50
2023-04-16T00:13:45.654Z,14.40
2023-04-16T00:16:12.491Z,14.30
2023-04-16T00:18:39.493Z,14.40
2023-04-16T00:21:06.930Z,14.30
2023-04-16T00:23:33.638Z,14.40
2023-04-16T00:26:00.425Z,14.50
2023-04-16T00:28:30.104Z,14.60
2023-04-16T00:30:56.905Z,14.60
2023-04-16T00:33:23.761Z,14.40
2023-04-16T00:35:50.770Z,14.50
2023-04-16T00:38:17.524Z,14.40
2023-04-16T00:40:44.346Z,14.30
2023-04-16T00:43:11.401Z,14.20
2023-04-16T00:45:38.370Z,14.20
2023-04-16T00:48:05.969Z,14.30
2023-04-16T00:50:33.336Z,14.40
2023-04-16T00:53:00.544Z,14.50
2023-04-16T00:55:27.436Z,14.50
2023-04-16T00:57:54.257Z,14.30
2023-04-16T01:00:21.587Z,14.20
2023-04-16T01:02:48.581Z,14.20
2023-04-16T01:05:15.636Z,14.10
2023-04-16T01:07:42.382Z,14.10
2023-04-16T01:10:09.085Z,14.30
2023-04-16T01:12:35.873Z,14.40
2023-04-16T01:15:02.613Z,14.30
2023-04-16T01:17:29.358Z,14.20
2023-04-16T01:19:58.923Z,14.20
2023-04-16T01:22:25.669Z,14.10
2023-04-16T01:24:52.344Z,14.10
2023-04-16T01:27:19.070Z,14.10
2023-04-16T01:29:45.866Z,14.00
2023-04-16T01:32:12.567Z,14.00
2023-04-16T01:34:39.408Z,14.00
2023-04-16T01:37:06.120Z,14.10
2023-04-16T01:39:32.886Z,14.00
2023-04-16T01:41:59.659Z,14.00
2023-04-16T01:44:26.461Z,14.10
2023-04-16T01:46:53.245Z,14.10
2023-04-16T01:49:20.111Z,14.10
2023-04-16T01:51:46.896Z,14.20
2023-04-16T01:54:13.658Z,14.10
2023-04-16T01:56:40.536Z,14.10
2023-04-16T01:59:07.423Z,14.10
2023-04-16T02:01:34.599Z,14.10
2023-04-16T02:04:01.699Z,14.10
2023-04-16T02:06:28.595Z,14.10
2023-04-16T02:08:55.362Z,14.00
2023-04-16T02:11:22.140Z,14.10
2023-04-16T02:13:48.859Z,14.00
2023-04-16T02:16:15.658Z,14.00
2023-04-16T02:18:42.624Z,14.00
2023-04-16T02:21:09.352Z,14.00
2023-04-16T02:23:36.108Z,14.10
2023-04-16T02:26:03.068Z,14.10
2023-04-16T02:28:29.875Z,14.00
2023-04-16T02:30:56.653Z,13.90
2023-04-16T02:33:26.043Z,13.90
2023-04-16T02:35:53.210Z,13.90
2023-04-16T02:38:19.974Z,13.90
2023-04-16T02:40:46.769Z,13.90
2023-04-16T02:43:13.536Z,13.90
2023-04-16T02:45:40.334Z,13.70
2023-04-16T02:48:08.903Z,13.60
2023-04-16T02:50:35.803Z,13.70
2023-04-16T02:53:03.391Z,13.80
2023-04-16T02:55:30.147Z,13.80
2023-04-16T02:57:56.830Z,13.80
2023-04-16T03:00:23.580Z,13.30
2023-04-16T03:02:50.523Z,13.30
2023-04-16T03:05:17.317Z,13.30
2023-04-16T03:07:44.007Z,13.30
2023-04-16T03:10:11.987Z,13.30
2023-04-16T03:12:39.248Z,13.30
2023-04-16T03:15:06.288Z,13.40
2023-04-16T03:17:33.250Z,13.70
2023-04-16T03:20:00.019Z,13.80
2023-04-16T03:22:27.068Z,14.00
2023-04-16T03:24:53.930Z,13.90
2023-04-16T03:27:20.618Z,13.90
2023-04-16T03:29:47.300Z,13.90
2023-04-16T03:32:14.465Z,13.90
2023-04-16T03:34:41.234Z,13.80
2023-04-16T03:37:11.965Z,13.80
2023-04-16T03:39:39.031Z,13.70
2023-04-16T03:42:06.109Z,13.70
2023-04-16T03:44:32.817Z,13.80
2023-04-16T03:46:59.778Z,13.60
2023-04-16T03:49:26.628Z,13.60
2023-04-16T03:51:53.380Z,13.70
2023-04-16T03:54:22.460Z,13.70
2023-04-16T03:56:49.692Z,13.80
2023-04-16T03:59:16.433Z,13.80
2023-04-16T04:01:43.221Z,13.80
2023-04-16T04:04:10.185Z,13.70
2023-04-16T04:06:37.008Z,13.70
2023-04-16T04:09:04.178Z,13.80
2023-04-16T04:11:31.008Z,13.70
2023-04-16T04:13:57.818Z,13.70
2023-04-16T04:16:24.818Z,13.70
2023-04-16T04:18:51.578Z,13.70
2023-04-16T04:21:18.307Z,13.70
2023-04-16T04:23:45.138Z,13.70
2023-04-16T04:26:11.847Z,13.80
2023-04-16T04:28:38.604Z,13.80
2023-04-16T04:31:05.602Z,13.70
2023-04-16T04:33:33.436Z,13.60
2023-04-16T04:36:00.135Z,13.50
2023-04-16T04:38:26.986Z,13.60
2023-04-16T04:40:54.034Z,13.60
2023-04-16T04:43:20.785Z,13.20
2023-04-16T04:45:49.304Z,12.80
2023-04-16T04:48:16.318Z,12.60
2023-04-16T04:50:43.315Z,12.60
2023-04-16T04:53:10.732Z,12.60
2023-04-16T04:55:38.071Z,12.80
2023-04-16T04:58:05.220Z,13.20
2023-04-16T05:00:32.686Z,13.40
2023-04-16T05:03:02.960Z,13.50
2023-04-16T05:05:29.717Z,13.50
2023-04-16T05:07:56.569Z,13.70
2023-04-16T05:10:23.271Z,13.60
2023-04-16T05:12:50.086Z,13.60
2023-04-16T05:15:17.238Z,13.60
2023-04-16T05:17:44.019Z,13.30
2023-04-16T05:20:10.911Z,13.00
2023-04-16T05:22:37.840Z,13.30
2023-04-16T05:25:04.789Z,13.50
2023-04-16T05:27:31.452Z,13.60
2023-04-16T05:29:58.288Z,13.70
2023-04-16T05:32:26.058Z,13.70
2023-04-16T05:34:52.886Z,13.70
2023-04-16T05:37:19.782Z,13.80
2023-04-16T05:39:46.888Z,13.80
2023-04-16T05:42:13.633Z,13.90
2023-04-16T05:44:40.677Z,14.10
2023-04-16T05:47:09.385Z,14.20
2023-04-16T05:49:37.369Z,14.20
2023-04-16T05:52:04.419Z,14.20
2023-04-16T05:54:31.394Z,14.20
2023-04-16T05:56:58.075Z,14.30
2023-04-16T05:59:24.941Z,14.10
2023-04-16T06:01:51.642Z,14.10
2023-04-16T06:04:18.605Z,14.10
2023-04-16T06:06:45.563Z,14.20
2023-04-16T06:09:12.398Z,14.10
2023-04-16T06:11:39.179Z,14.00
2023-04-16T06:14:06.041Z,14.20
2023-04-16T06:16:32.805Z,14.30
2023-04-16T06:18:59.624Z,14.40
2023-04-16T06:21:26.765Z,14.50
2023-04-16T06:23:54.453Z,14.50
2023-04-16T06:26:21.246Z,14.50
2023-04-16T06:28:48.091Z,14.60
2023-04-16T06:31:14.890Z,14.60
2023-04-16T06:33:41.690Z,14.60
2023-04-16T06:36:08.652Z,14.70
2023-04-16T06:38:36.326Z,14.70
2023-04-16T06:41:03.510Z,14.70
2023-04-16T06:43:31.899Z,14.60
2023-04-16T06:45:58.580Z,14.60
2023-04-16T06:48:25.352Z,14.60
2023-04-16T06:50:52.082Z,14.70
2023-04-16T06:53:18.790Z,14.60
2023-04-16T06:55:45.614Z,14.60
2023-04-16T06:58:12.427Z,14.70
2023-04-16T07:00:39.325Z,14.70
2023-04-16T07:03:06.301Z,14.70
2023-04-16T07:05:33.221Z,14.80
2023-04-16T07:07:59.978Z,14.80
2023-04-16T07:10:26.698Z,14.80
2023-04-16T07:12:53.499Z,14.80
2023-04-16T07:15:20.270Z,14.80
2023-04-16T07:17:47.005Z,14.80
2023-04-16T07:20:13.738Z,14.80
2023-04-16T07:22:40.652Z,14.90
2023-04-16T07:25:07.691Z,14.90
2023-04-16T07:27:34.384Z,15.00
2023-04-16T07:30:01.390Z,15.00
2023-04-16T07:32:28.109Z,15.00
2023-04-16T07:34:55.727Z,15.00
2023-04-16T07:37:22.760Z,15.00
2023-04-16T07:39:49.483Z,15.00
2023-04-16T07:42:16.281Z,15.00
2023-04-16T07:44:43.107Z,15.20
2023-04-16T07:47:10.069Z,15.10
2023-04-16T07:49:36.800Z,15.00
2023-04-16T07:52:03.494Z,15.00
2023-04-16T07:54:30.260Z,15.00
2023-04-16T07:56:56.978Z,15.00
2023-04-16T07:59:24.529Z,15.00
2023-04-16T08:01:52.800Z,15.10
2023-04-16T08:04:25.068Z,15.10
2023-04-16T08:06:52.766Z,15.10
2023-04-16T08:09:20.616Z,15.00
2023-04-16T08:11:49.316Z,15.00
2023-04-16T08:14:16.654Z,15.20
2023-04-16T08:16:43.531Z,15.40
2023-04-16T08:19:10.621Z,15.50
2023-04-16T08:21:37.666Z,15.60
2023-04-16T08:24:04.358Z,15.60
2023-04-16T08:26:31.315Z,15.70
2023-04-16T08:28:58.005Z,15.60
2023-04-16T08:31:24.760Z,15.60
2023-04-16T08:33:51.593Z,15.60
2023-04-16T08:36:18.359Z,15.70
2023-04-16T08:38:45.059Z,15.60
2023-04-16T08:41:12.767Z,15.60
2023-04-16T08:43:42.439Z,15.80
2023-04-16T08:46:09.553Z,15.80
2023-04-16T08:48:37.216Z,15.90
2023-04-16T08:51:05.781Z,16.10
2023-04-16T08:54:07.822Z,16.10
2023-04-16T08:56:37.707Z,16.10
2023-04-16T08:59:07.539Z,16.10
2023-04-16T09:01:35.505Z,16.20
2023-04-16T09:04:03.273Z,16.40
2023-04-16T09:06:31.441Z,16.40
2023-04-16T09:08:59.531Z,16.40
2023-04-16T09:11:26.450Z,16.20
2023-04-16T09:13:53.516Z,15.90
2023-04-16T09:16:20.520Z,15.90
2023-04-16T09:18:47.917Z,16.10
2023-04-16T09:21:15.365Z,15.70
2023-04-16T09:23:42.187Z,15.40
2023-04-16T09:26:08.947Z,15.60
2023-04-16T09:28:38.870Z,15.90
2023-04-16T09:31:13.770Z,16.00
2023-04-16T09:33:41.069Z,16.40
2023-04-16T09:36:07.796Z,16.50
2023-04-16T09:39:00.877Z,16.10
2023-04-16T09:41:28.534Z,16.00
2023-04-16T09:44:02.561Z,15.90
2023-04-16T09:46:36.424Z,16.20
2023-04-16T09:49:10.826Z,16.20
2023-04-16T09:51:38.066Z,16.50
2023-04-16T09:54:05.112Z,16.80
2023-04-16T09:56:31.852Z,16.80
2023-04-16T09:59:01.284Z,16.70
2023-04-16T10:01:29.222Z,16.70
2023-04-16T10:03:56.614Z,16.70
2023-04-16T10:06:24.024Z,16.80
2023-04-16T10:08:51.552Z,16.70
2023-04-16T10:11:19.160Z,16.60
2023-04-16T10:13:46.314Z,16.50
2023-04-16T10:16:13.254Z,16.30
2023-04-16T10:18:41.191Z,16.10
2023-04-16T10:21:08.507Z,15.80
2023-04-16T10:23:35.558Z,15.80
2023-04-16T10:26:02.678Z,15.90
2023-04-16T10:28:29.571Z,15.90
2023-04-16T10:30:57.227Z,16.20
2023-04-16T10:33:37.258Z,16.30
2023-04-16T10:36:14.131Z,16.40
2023-04-16T10:38:41.948Z,16.30
2023-04-16T10:41:09.625Z,16.30
2023-04-16T10:43:43.362Z,16.30
2023-04-16T10:46:28.758Z,16.50
2023-04-16T10:48:56.616Z,16.60
2023-04-16T10:51:26.253Z,16.60
2023-04-16T10:53:54.049Z,16.70
2023-04-16T10:56:24.837Z,16.50
2023-04-16T10:58:52.974Z,16.70
2023-04-16T11:01:26.478Z,16.70
2023-04-16T11:03:53.296Z,16.60
2023-04-16T11:06:27.040Z,16.80
2023-04-16T11:08:55.251Z,16.80
2023-04-16T11:11:22.825Z,16.70
2023-04-16T11:13:49.745Z,16.80
2023-04-16T11:16:16.849Z,16.70
2023-04-16T11:18:51.159Z,16.70
2023-04-16T11:21:19.808Z,16.80
2023-04-16T11:23:50.791Z,16.60
2023-04-16T11:26:21.567Z,16.70
2023-04-16T11:28:48.302Z,16.80
2023-04-16T11:31:14.989Z,16.80
2023-04-16T11:33:42.820Z,16.80
2023-04-16T11:36:09.648Z,16.90
2023-04-16T11:38:37.283Z,16.80
2023-04-16T11:41:04.409Z,16.80
2023-04-16T11:43:32.034Z,16.70
2023-04-16T11:45:59.843Z,16.60
2023-04-16T11:48:45.633Z,16.80
2023-04-16T11:51:12.520Z,16.90
2023-04-16T11:53:46.100Z,16.70
2023-04-16T11:56:12.851Z,16.70
2023-04-16T11:58:42.488Z,16.80
2023-04-16T12:01:10.284Z,16.80
2023-04-16T12:03:44.245Z,16.90
2023-04-16T12:06:11.446Z,16.70
2023-04-16T12:08:38.181Z,16.60
2023-04-16T12:11:04.956Z,16.80
2023-04-16T12:13:31.816Z,17.00
2023-04-16T12:15:58.577Z,17.00
2023-04-16T12:18:28.351Z,17.10
2023-04-16T12:20:55.184Z,16.80
2023-04-16T12:23:29.392Z,16.80
2023-04-16T12:25:56.796Z,16.90
2023-04-16T12:28:27.298Z,17.10
2023-04-16T12:30:54.046Z,17.00
2023-04-16T12:33:21.324Z,16.90
2023-04-16T12:35:48.062Z,17.00
2023-04-16T12:38:15.473Z,17.10
2023-04-16T12:40:42.576Z,17.20
2023-04-16T12:43:09.968Z,17.20
2023-04-16T12:45:36.942Z,17.10
2023-04-16T12:48:03.818Z,17.20
2023-04-16T12:50:30.669Z,17.20
2023-04-16T12:52:57.966Z,17.20
2023-04-16T12:55:25.096Z,17.20
2023-04-16T12:57:55.005Z,17.10
2023-04-16T13:00:21.915Z,17.10
2023-04-16T13:02:48.816Z,17.10
2023-04-16T13:05:16.683Z,17.30
2023-04-16T13:07:43.535Z,17.30
2023-04-16T13:10:10.902Z,17.30
2023-04-16T13:12:37.681Z,17.20
2023-04-16T13:15:04.922Z,17.20
2023-04-16T13:17:31.993Z,17.20
2023-04-16T13:19:58.713Z,17.30
2023-04-16T13:22:25.455Z,17.50
2023-04-16T13:24:52.291Z,17.50
2023-04-16T13:27:19.016Z,17.30
2023-04-16T13:29:47.148Z,17.20
2023-04-16T13:32:14.851Z,17.30
2023-04-16T13:34:41.611Z,17.40
2023-04-16T13:37:08.445Z,17.30
2023-04-16T13:39:35.275Z,17.30
2023-04-16T13:42:02.672Z,17.30
2023-04-16T13:44:29.646Z,17.30
2023-04-16T13:46:56.747Z,17.40
2023-04-16T13:49:23.583Z,17.20
2023-04-16T13:51:50.687Z,17.40
2023-04-16T13:54:17.450Z,17.30
2023-04-16T13:56:44.263Z,17.60
2023-04-16T13:59:11.347Z,17.70
2023-04-16T14:01:38.612Z,17.30
2023-04-16T14:04:06.849Z,17.30
2023-04-16T14:06:36.512Z,17.40
2023-04-16T14:09:04.184Z,17.40
2023-04-16T14:11:31.331Z,17.40
2023-04-16T14:13:58.325Z,17.50
2023-04-16T14:16:25.133Z,17.50
2023-04-16T14:18:52.148Z,17.50
2023-04-16T14:21:18.968Z,17.50
2023-04-16T14:23:45.765Z,17.60
2023-04-16T14:26:12.500Z,17.80
2023-04-16T14:28:40.068Z,17.80
2023-04-16T14:31:06.818Z,17.70
2023-04-16T14:33:33.544Z,17.70
2023-04-16T14:36:02.719Z,17.80
2023-04-16T14:38:30.254Z,17.70
2023-04-16T14:40:57.006Z,17.70
2023-04-16T14:43:23.700Z,17.60
2023-04-16T14:45:51.149Z,17.50
2023-04-16T14:48:17.931Z,17.50
2023-04-16T14:50:44.805Z,17.70
2023-04-16T14:53:12.005Z,17.60
2023-04-16T14:55:38.802Z,17.70
2023-04-16T14:58:05.582Z,17.60
2023-04-16T15:00:34.124Z,17.60
2023-04-16T15:03:01.122Z,17.70
2023-04-16T15:05:27.967Z,17.70
2023-04-16T15:07:55.334Z,17.80
2023-04-16T15:10:22.075Z,17.90
2023-04-16T15:12:48.774Z,17.90
2023-04-16T15:15:15.920Z,17.90
2023-04-16T15:17:43.248Z,17.90
2023-04-16T15:20:10.521Z,17.70
2023-04-16T15:22:38.246Z,17.70
2023-04-16T15:25:06.076Z,17.60
2023-04-16T15:27:32.847Z,17.70
2023-04-16T15:29:59.909Z,17.70
2023-04-16T15:32:26.775Z,17.70
2023-04-16T15:34:53.436Z,17.70
2023-04-16T15:37:20.156Z,17.80
2023-04-16T15:39:47.092Z,17.80
2023-04-16T15:42:13.819Z,17.60
2023-04-16T15:44:41.041Z,17.60
2023-04-16T15:47:08.687Z,17.50
2023-04-16T15:49:36.074Z,17.60
2023-04-16T15:52:03.014Z,17.70
2023-04-16T15:54:30.282Z,17.50
2023-04-16T15:56:58.719Z,17.50
2023-04-16T15:59:26.124Z,17.50
2023-04-16T16:01:53.057Z,17.50
2023-04-16T16:04:22.170Z,17.50
2023-04-16T16:06:52.032Z,17.40
2023-04-16T16:09:25.591Z,17.30
2023-04-16T16:11:53.819Z,17.30
2023-04-16T16:14:21.230Z,17.30
2023-04-16T16:16:48.059Z,17.20
2023-04-16T16:19:15.101Z,17.10
2023-04-16T16:21:41.843Z,17.10
2023-04-16T16:24:08.590Z,17.10
2023-04-16T16:26:35.415Z,17.20
2023-04-16T16:29:02.154Z,17.20
2023-04-16T16:31:29.012Z,17.20
2023-04-16T16:33:55.918Z,17.10
2023-04-16T16:36:22.680Z,17.20
2023-04-16T16:38:49.415Z,17.20
2023-04-16T16:41:16.208Z,17.20
2023-04-16T16:43:43.208Z,17.20
2023-04-16T16:46:10.042Z,17.20
2023-04-16T16:48:36.930Z,17.20
2023-04-16T16:51:03.771Z,17.20
2023-04-16T16:53:30.596Z,17.10
2023-04-16T16:55:57.414Z,17.00
2023-04-16T16:58:24.221Z,17.00
2023-04-16T17:00:50.947Z,16.90
2023-04-16T17:03:17.944Z,16.90
2023-04-16T17:05:44.742Z,16.90
2023-04-16T17:08:12.042Z,16.90
2023-04-16T17:10:38.835Z,16.90
2023-04-16T17:13:05.550Z,16.80
2023-04-16T17:15:32.249Z,16.80
2023-04-16T17:17:59.030Z,16.80
2023-04-16T17:20:26.246Z,16.80
2023-04-16T17:22:53.016Z,16.90
2023-04-16T17:25:19.896Z,16.80
2023-04-16T17:27:46.641Z,16.80
2023-04-16T17:30:14.602Z,16.70
2023-04-16T17:32:41.554Z,16.70
2023-04-16T17:35:09.773Z,16.70
2023-04-16T17:37:36.548Z,16.70
2023-04-16T17:40:07.737Z,16.70
2023-04-16T17:42:35.168Z,16.60
2023-04-16T17:45:02.535Z,16.60
2023-04-16T17:47:29.468Z,16.70
2023-04-16T17:49:56.494Z,16.70
2023-04-16T17:52:23.337Z,16.70
2023-04-16T17:54:50.287Z,16.70
2023-04-16T17:57:17.010Z,16.60
2023-04-16T17:59:43.791Z,16.60
2023-04-16T18:02:10.672Z,16.50
2023-04-16T18:04:37.507Z,16.50
2023-04-16T18:07:04.301Z,16.50
2023-04-16T18:09:31.913Z,16.50
2023-04-16T18:11:58.650Z,16.50
2023-04-16T18:14:25.426Z,16.40
2023-04-16T18:16:52.368Z,16.50
2023-04-16T18:19:19.050Z,16.40
2023-04-16T18:21:45.922Z,16.30
2023-04-16T18:24:12.920Z,16.30
2023-04-16T18:26:47.037Z,16.20
2023-04-16T18:29:14.409Z,16.20
2023-04-16T18:31:41.384Z,16.20
2023-04-16T18:34:08.689Z,16.10
2023-04-16T18:36:35.533Z,16.10
2023-04-16T18:39:02.749Z,16.10
2023-04-16T18:41:29.994Z,16.00
2023-04-16T18:43:57.078Z,16.10
2023-04-16T18:46:24.039Z,16.10
2023-04-16T18:48:50.973Z,16.00
2023-04-16T18:51:17.734Z,16.10
2023-04-16T18:53:45.664Z,16.00
2023-04-16T18:56:12.694Z,16.00
2023-04-16T18:58:39.520Z,16.00
2023-04-16T19:01:10.996Z,15.90
2023-04-16T19:03:38.460Z,15.90
2023-04-16T19:06:06.090Z,16.00
2023-04-16T19:08:33.073Z,15.90
2023-04-16T19:10:59.858Z,15.90
2023-04-16T19:13:26.773Z,15.80
2023-04-16T19:16:00.020Z,15.90
2023-04-16T19:18:27.056Z,15.80
2023-04-16T19:21:00.717Z,15.90
2023-04-16T19:23:28.027Z,15.90
2023-04-16T19:25:56.962Z,15.70
2023-04-16T19:28:24.411Z,15.70
2023-04-16T19:30:51.479Z,15.70
2023-04-16T19:33:18.986Z,15.70
2023-04-16T19:35:46.398Z,15.60
2023-04-16T19:38:13.230Z,15.60
2023-04-16T19:40:40.421Z,15.70
2023-04-16T19:43:07.378Z,15.60
2023-04-16T19:45:34.239Z,15.50
2023-04-16T19:48:01.021Z,15.60
2023-04-16T19:50:27.784Z,15.60
2023-04-16T19:52:54.654Z,15.50
2023-04-16T19:55:22.764Z,15.50
2023-04-16T19:57:49.696Z,15.40
2023-04-16T20:00:17.229Z,15.50
2023-04-16T20:02:44.075Z,15.40
2023-04-16T20:05:11.195Z,15.30
2023-04-16T20:07:37.943Z,15.40
2023-04-16T20:10:04.906Z,15.30
2023-04-16T20:12:32.121Z,15.20
2023-04-16T20:14:59.030Z,15.20
2023-04-16T20:17:26.082Z,15.10
2023-04-16T20:19:52.818Z,15.10
2023-04-16T20:22:19.586Z,15.10
2023-04-16T20:24:47.907Z,15.10
2023-04-16T20:27:15.363Z,15.00
2023-04-16T20:29:42.413Z,15.00
2023-04-16T20:32:09.201Z,15.10
2023-04-16T20:34:37.966Z,15.00
2023-04-16T20:37:04.946Z,15.00
2023-04-16T20:39:34.241Z,15.00
2023-04-16T20:42:04.223Z,15.00
2023-04-16T20:44:40.461Z,15.00
2023-04-16T20:47:08.234Z,15.00
2023-04-16T20:49:35.017Z,15.00
2023-04-16T20:52:02.648Z,15.00
2023-04-16T20:54:29.677Z,15.00
2023-04-16T20:56:57.129Z,15.00
2023-04-16T20:59:24.202Z,14.90
2023-04-16T21:01:52.222Z,14.90
2023-04-16T21:04:19.265Z,14.90
2023-04-16T21:06:46.506Z,14.90
2023-04-16T21:09:13.397Z,14.80
2023-04-16T21:11:40.793Z,14.80
2023-04-16T21:14:07.793Z,14.80
2023-04-16T21:16:34.615Z,14.80
2023-04-16T21:19:01.435Z,14.80
2023-04-16T21:21:28.421Z,14.80
2023-04-16T21:23:55.433Z,15.00
2023-04-16T21:26:22.233Z,15.10
2023-04-16T21:28:49.134Z,15.10
2023-04-16T21:31:16.098Z,15.20
2023-04-16T21:33:42.960Z,15.20
2023-04-16T21:36:10.516Z,15.10
2023-04-16T21:38:37.262Z,14.90
2023-04-16T21:41:03.962Z,14.70
2023-04-16T21:43:32.175Z,14.60
2023-04-16T21:45:59.555Z,14.60
2023-04-16T21:48:27.079Z,14.50
2023-04-16T21:51:06.159Z,14.50
2023-04-16T21:53:33.122Z,14.50
2023-04-16T21:56:00.024Z,14.60
2023-04-16T21:58:26.884Z,14.60
2023-04-16T22:00:54.215Z,14.60
2023-04-16T22:03:26.446Z,14.50
2023-04-16T22:05:57.309Z,14.50
2023-04-16T22:08:25.166Z,14.40
2023-04-16T22:10:52.006Z,14.40
2023-04-16T22:13:18.967Z,14.30
2023-04-16T22:15:46.128Z,14.20
2023-04-16T22:18:12.829Z,14.20
2023-04-16T22:20:39.928Z,14.10
2023-04-16T22:23:06.819Z,14.20
2023-04-16T22:25:33.638Z,14.40
2023-04-16T22:28:03.411Z,14.50
2023-04-16T22:30:30.194Z,14.50
2023-04-16T22:32:57.803Z,14.30
2023-04-16T22:35:24.697Z,14.30
2023-04-16T22:37:51.527Z,14.20
2023-04-16T22:40:18.866Z,14.20
2023-04-16T22:42:45.631Z,14.20
2023-04-16T22:45:12.773Z,14.20
2023-04-16T22:47:39.699Z,14.20
2023-04-16T22:50:06.904Z,14.20
2023-04-16T22:52:33.720Z,14.10
2023-04-16T22:55:00.398Z,14.20
2023-04-16T22:57:27.118Z,14.30
2023-04-16T22:59:54.365Z,14.30
2023-04-16T23:02:21.620Z,14.30
2023-04-16T23:04:48.464Z,14.30
2023-04-16T23:07:15.647Z,14.30
2023-04-16T23:09:42.721Z,14.20
2023-04-16T23:12:09.494Z,14.30
2023-04-16T23:14:37.011Z,14.20
2023-04-16T23:17:03.880Z,14.10
2023-04-16T23:19:31.807Z,14.10
2023-04-16T23:21:58.813Z,14.00
2023-04-16T23:24:25.539Z,14.10
2023-04-16T23:26:52.871Z,14.10
2023-04-16T23:29:20.600Z,14.20
2023-04-16T23:31:47.747Z,14.30
2023-04-16T23:34:14.698Z,14.50
2023-04-16T23:36:41.465Z,14.50
2023-04-16T23:39:08.160Z,14.50
2023-04-16T23:41:34.921Z,14.50
2023-04-16T23:44:01.649Z,14.60
2023-04-16T23:46:28.422Z,14.70
2023-04-16T23:48:55.519Z,14.70
2023-04-16T23:51:22.343Z,14.80
2023-04-16T23:53:49.096Z,14.90
2023-04-16T23:56:16.422Z,14.80
2023-04-16T23:58:43.151Z,14.70
